createdAt,value
2022-08-09T00:04:06.221Z,83.05
2022-08-09T00:09:13.292Z,83.23
2022-08-09T00:14:21.966Z,82.86
2022-08-09T00:19:32.615Z,83.18
2022-08-09T00:24:35.944Z,83.13
2022-08-09T00:30:23.373Z,83.06
2022-08-09T00:35:03.152Z,83.29
2022-08-09T00:40:13.838Z,83.71
2022-08-09T00:45:20.236Z,83.29
2022-08-09T00:50:24.734Z,83.93
2022-08-09T00:56:04.120Z,83.88
2022-08-09T01:00:51.892Z,83.54
2022-08-09T01:06:17.560Z,83.62
2022-08-09T01:11:41.953Z,83.79
2022-08-09T01:17:18.007Z,83.54
2022-08-09T01:23:04.401Z,84.03
2022-08-09T01:28:15.164Z,84.58
2022-08-09T01:33:19.241Z,85.07
2022-08-09T01:38:31.249Z,85.08
2022-08-09T01:43:50.699Z,84.54
2022-08-09T01:49:00.138Z,84.73
2022-08-09T01:54:13.784Z,84.50
2022-08-09T01:59:18.948Z,84.25
2022-08-09T02:04:23.093Z,84.67
2022-08-09T02:09:41.874Z,85.04
2022-08-09T02:14:47.946Z,84.59
2022-08-09T02:19:54.037Z,85.04
2022-08-09T02:24:59.155Z,84.99
2022-08-09T02:30:02.073Z,84.72
2022-08-09T02:35:17.152Z,84.54
2022-08-09T02:40:26.933Z,84.83
2022-08-09T02:45:41.452Z,84.58
2022-08-09T02:50:54.360Z,84.96
2022-08-09T02:56:00.116Z,85.24
2022-08-09T03:01:06.298Z,85.58
2022-08-09T03:06:14.505Z,85.30
2022-08-09T03:12:06.671Z,85.24
2022-08-09T03:16:47.455Z,85.20
2022-08-09T03:21:51.449Z,85.01
2022-08-09T03:26:54.444Z,84.67
2022-08-09T03:32:00.189Z,85.25
2022-08-09T03:37:54.540Z,85.58
2022-08-09T03:42:26.282Z,85.55
2022-08-09T03:47:32.482Z,85.98
2022-08-09T03:52:42.609Z,86.57
2022-08-09T03:58:03.314Z,87.88
2022-08-09T04:03:11.741Z,87.32
2022-08-09T04:08:17.104Z,86.56
2022-08-09T04:13:19.180Z,85.19
2022-08-09T04:18:41.740Z,84.30
2022-08-09T04:23:53.760Z,83.19
2022-08-09T04:28:58.323Z,81.34
2022-08-09T04:34:02.403Z,80.63
2022-08-09T04:39:08.728Z,79.02
2022-08-09T04:44:14.474Z,77.78
2022-08-09T04:49:16.737Z,77.33
2022-08-09T04:54:24.234Z,75.52
2022-08-09T04:59:26.251Z,74.62
2022-08-09T05:04:32.385Z,74.46
2022-08-09T05:09:42.183Z,72.84
2022-08-09T05:14:50.944Z,72.61
2022-08-09T05:19:57.044Z,71.99
2022-08-09T05:25:00.993Z,72.04
2022-08-09T05:30:04.921Z,71.27
2022-08-09T05:35:08.868Z,70.95
2022-08-09T05:40:11.745Z,71.31
2022-08-09T05:45:14.292Z,71.21
2022-08-09T05:50:32.342Z,70.70
2022-08-09T05:55:38.561Z,70.33
2022-08-09T06:00:40.184Z,69.72
2022-08-09T06:05:57.017Z,69.09
2022-08-09T06:11:00.053Z,68.20
2022-08-09T06:16:04.781Z,68.82
2022-08-09T06:21:08.138Z,68.30
2022-08-09T06:26:09.845Z,68.17
2022-08-09T06:31:11.552Z,67.03
2022-08-09T06:36:13.838Z,67.23
2022-08-09T06:41:18.880Z,67.82
2022-08-09T06:46:39.722Z,66.96
2022-08-09T06:51:43.097Z,67.25
2022-08-09T06:56:47.640Z,66.87
2022-08-09T07:01:54.006Z,66.86
2022-08-09T07:06:59.955Z,67.67
2022-08-09T07:12:03.174Z,67.37
2022-08-09T07:17:08.185Z,67.25
2022-08-09T07:22:10.899Z,66.76
2022-08-09T07:27:26.857Z,66.86
2022-08-09T07:32:35.289Z,66.28
2022-08-09T07:37:44.559Z,66.70
2022-08-09T07:42:56.081Z,66.33
2022-08-09T07:48:01.465Z,66.38
2022-08-09T07:53:07.938Z,64.93
2022-08-09T07:58:13.339Z,66.04
2022-08-09T08:03:16.027Z,64.80
2022-08-09T08:09:02.218Z,64.10
2022-08-09T08:13:55.897Z,64.73
2022-08-09T08:18:59.533Z,64.39
2022-08-09T08:24:12.056Z,64.38
2022-08-09T08:29:20.392Z,64.40
2022-08-09T08:34:29.872Z,63.69
2022-08-09T08:39:39.191Z,63.99
2022-08-09T08:44:46.636Z,61.57
2022-08-09T08:49:49.410Z,60.38
2022-08-09T08:54:55.376Z,61.00
2022-08-09T08:59:57.506Z,60.55
2022-08-09T09:05:05.925Z,60.74
2022-08-09T09:10:11.639Z,61.43
2022-08-09T09:15:28.155Z,60.37
2022-08-09T09:20:36.539Z,59.95
2022-08-09T09:26:04.123Z,60.82
2022-08-09T09:31:05.967Z,59.48
2022-08-09T09:36:20.487Z,59.98
2022-08-09T09:41:22.709Z,57.38
2022-08-09T09:46:45.731Z,59.03
2022-08-09T09:52:02.284Z,57.82
2022-08-09T09:58:00.787Z,56.99
2022-08-09T10:02:46.633Z,57.39
2022-08-09T10:08:10.650Z,58.30
2022-08-09T10:13:10.972Z,58.01
2022-08-09T10:18:26.524Z,58.36
2022-08-09T10:23:28.366Z,58.35
2022-08-09T10:28:33.186Z,57.36
2022-08-09T10:34:09.005Z,56.39
2022-08-09T10:39:00.059Z,56.67
2022-08-09T10:44:04.006Z,56.47
2022-08-09T10:49:50.056Z,55.30
2022-08-09T10:54:48.937Z,56.19
2022-08-09T10:59:57.588Z,53.93
2022-08-09T11:05:24.870Z,54.25
2022-08-09T11:10:41.229Z,53.29
2022-08-09T11:16:37.010Z,53.36
2022-08-09T11:22:10.470Z,53.72
2022-08-09T11:28:05.017Z,53.24
2022-08-09T11:33:15.451Z,52.04
2022-08-09T11:38:28.842Z,53.10
2022-08-09T11:43:34.935Z,52.98
2022-08-09T11:48:53.807Z,51.21
2022-08-09T11:54:27.653Z,48.81
2022-08-09T11:59:33.695Z,47.38
2022-08-09T12:04:38.015Z,48.96
2022-08-09T12:09:40.041Z,47.17
2022-08-09T12:15:08.027Z,47.28
2022-08-09T12:20:16.461Z,46.26
2022-08-09T12:25:36.978Z,47.02
2022-08-09T12:30:40.403Z,46.93
2022-08-09T12:35:43.021Z,45.33
2022-08-09T12:40:46.751Z,44.60
2022-08-09T12:45:59.687Z,43.20
2022-08-09T12:51:03.954Z,43.21
2022-08-09T12:56:44.303Z,43.20
2022-08-09T13:01:46.760Z,41.75
2022-08-09T13:06:51.155Z,41.82
2022-08-09T13:12:02.476Z,41.46
2022-08-09T13:17:08.663Z,43.14
2022-08-09T13:22:37.482Z,40.16
2022-08-09T13:27:48.541Z,42.23
2022-08-09T13:32:57.926Z,42.20
2022-08-09T13:38:00.294Z,41.32
2022-08-09T13:43:05.269Z,42.15
2022-08-09T13:48:11.392Z,41.38
2022-08-09T13:53:16.709Z,41.97
2022-08-09T13:58:18.366Z,41.92
2022-08-09T14:04:01.802Z,40.50
2022-08-09T14:08:43.329Z,41.10
2022-08-09T14:14:16.999Z,41.57
2022-08-09T14:19:07.077Z,40.56
2022-08-09T14:24:22.098Z,40.61
2022-08-09T14:30:35.400Z,40.83
2022-08-09T14:34:55.557Z,41.34
2022-08-09T14:39:57.684Z,40.75
2022-08-09T14:46:39.141Z,41.34
2022-08-09T14:50:24.911Z,41.11
2022-08-09T14:55:31.976Z,40.17
2022-08-09T15:00:36.302Z,39.70
2022-08-09T15:05:39.704Z,40.01
2022-08-09T15:11:01.675Z,40.20
2022-08-09T15:16:07.934Z,40.31
2022-08-09T15:21:56.829Z,40.30
2022-08-09T15:26:32.042Z,40.02
2022-08-09T15:31:41.854Z,40.77
2022-08-09T15:36:48.161Z,40.24
2022-08-09T15:41:50.812Z,40.98
2022-08-09T15:46:52.508Z,40.21
2022-08-09T15:52:04.014Z,40.90
2022-08-09T15:57:08.598Z,41.16
2022-08-09T16:02:13.389Z,41.07
2022-08-09T16:07:15.353Z,41.19
2022-08-09T16:12:17.720Z,40.38
2022-08-09T16:17:19.385Z,41.29
2022-08-09T16:22:24.076Z,41.05
2022-08-09T16:27:26.765Z,40.43
2022-08-09T16:32:54.371Z,41.47
2022-08-09T16:37:56.948Z,40.61
2022-08-09T16:43:02.261Z,40.90
2022-08-09T16:48:40.587Z,41.08
2022-08-09T16:53:33.809Z,41.43
2022-08-09T16:58:36.852Z,41.39
2022-08-09T17:03:38.698Z,42.00
2022-08-09T17:08:59.935Z,42.20
2022-08-09T17:14:05.132Z,42.07
2022-08-09T17:19:06.861Z,42.64
2022-08-09T17:24:20.626Z,42.63
2022-08-09T17:29:31.876Z,43.01
2022-08-09T17:35:04.205Z,43.20
2022-08-09T17:40:01.766Z,43.88
2022-08-09T17:45:06.448Z,43.79
2022-08-09T17:50:16.832Z,44.01
2022-08-09T17:55:19.342Z,44.79
2022-08-09T18:00:33.563Z,44.75
2022-08-09T18:05:44.118Z,45.01
2022-08-09T18:10:46.237Z,45.09
2022-08-09T18:16:08.843Z,45.16
2022-08-09T18:21:19.288Z,45.82
2022-08-09T18:26:26.112Z,46.00
2022-08-09T18:31:51.316Z,46.31
2022-08-09T18:36:50.505Z,47.33
2022-08-09T18:41:55.628Z,47.59
2022-08-09T18:47:08.110Z,48.10
2022-08-09T18:52:13.112Z,49.02
2022-08-09T18:57:15.661Z,49.37
2022-08-09T19:02:18.636Z,49.70
2022-08-09T19:07:20.952Z,50.34
2022-08-09T19:12:24.358Z,50.89
2022-08-09T19:17:31.132Z,51.00
2022-08-09T19:22:33.344Z,51.36
2022-08-09T19:27:35.915Z,51.30
2022-08-09T19:32:38.764Z,52.01
2022-08-09T19:37:54.478Z,52.47
2022-08-09T19:42:57.801Z,52.58
2022-08-09T19:47:59.801Z,53.02
2022-08-09T19:53:04.300Z,53.59
2022-08-09T19:58:07.222Z,53.63
2022-08-09T20:04:17.182Z,53.70
2022-08-09T20:08:40.470Z,54.29
2022-08-09T20:13:53.849Z,54.67
2022-08-09T20:19:43.134Z,55.00
2022-08-09T20:24:19.377Z,55.11
2022-08-09T20:29:37.362Z,55.61
2022-08-09T20:34:39.820Z,55.83
2022-08-09T20:40:16.831Z,56.34
2022-08-09T20:46:01.507Z,56.26
2022-08-09T20:50:48.034Z,56.58
2022-08-09T20:56:02.430Z,56.80
2022-08-09T21:01:13.972Z,57.14
2022-08-09T21:06:31.616Z,57.59
2022-08-09T21:16:55.093Z,57.70
2022-08-09T21:21:57.996Z,58.37
2022-08-09T21:26:59.765Z,58.58
2022-08-09T21:32:18.743Z,58.51
2022-08-09T21:37:21.902Z,59.20
2022-08-09T21:42:28.494Z,58.95
2022-08-09T21:47:30.592Z,59.81
2022-08-09T21:52:33.062Z,59.70
2022-08-09T21:57:39.120Z,60.26
2022-08-09T22:02:59.913Z,60.53
2022-08-09T22:08:01.902Z,60.57
2022-08-09T22:13:07.575Z,61.07
2022-08-09T22:18:13.325Z,61.24
2022-08-09T22:23:14.977Z,61.72
2022-08-09T22:28:29.472Z,61.91
2022-08-09T22:33:42.583Z,62.45
2022-08-09T22:38:51.196Z,62.89
2022-08-09T22:44:01.314Z,62.98
2022-08-09T22:49:09.814Z,62.68
2022-08-09T22:54:12.277Z,62.87
2022-08-09T22:59:55.303Z,63.31
2022-08-09T23:04:38.291Z,63.54
2022-08-09T23:09:40.458Z,63.88
2022-08-09T23:14:42.778Z,64.60
2022-08-09T23:20:01.130Z,64.86
2022-08-09T23:25:06.702Z,64.76
2022-08-09T23:30:08.663Z,64.71
2022-08-09T23:35:10.330Z,64.97
2022-08-09T23:40:12.501Z,65.26
2022-08-09T23:45:37.349Z,65.26
2022-08-09T23:50:36.149Z,65.90
2022-08-09T23:55:38.109Z,66.64
